Time;durP1;ratioP1;P1;durP2;ratioP2;P2;SDS_P1;SDS_P2;PMS_P1;PMS_P2;Temp;Humidity;BMP_temperature;BMP_pressure;BME280_temperature;BME280_humidity;BME280_pressure;Samples;Min_cycle;Max_cycle;Signal;HPM_P1;HPM_P2
2021/05/05 00:00:34;;;;;;;2.80;1.23;;;;;;;;;;5066974;28;20192;-52
2021/05/05 00:03:00;;;;;;;1.40;1.00;;;;;;;;;;5065344;28;20551;-53
2021/05/05 00:05:25;;;;;;;1.87;1.10;;;;;;;;;;5051924;28;20304;-53
2021/05/05 00:07:55;;;;;;;1.27;1.03;;;;;;;;;;5052846;28;20174;-51
2021/05/05 00:10:20;;;;;;;1.93;1.20;;;;;;;;;;5062874;28;20192;-52
2021/05/05 00:12:48;;;;;;;0.97;0.87;;;;;;;;;;5066784;28;20181;-52
2021/05/05 00:15:20;;;;;;;1.87;1.10;;;;;;;;;;5067881;28;20213;-53
2021/05/05 00:17:45;;;;;;;2.77;1.30;;;;;;;;;;5067087;28;20610;-52
2021/05/05 00:20:13;;;;;;;2.70;1.20;;;;;;;;;;5066782;28;20178;-52
2021/05/05 00:22:41;;;;;;;3.90;0.90;;;;;;;;;;5049650;28;20192;-51
2021/05/05 00:25:07;;;;;;;2.70;1.50;;;;;;;;;;5062535;28;20232;-52
2021/05/05 00:27:34;;;;;;;1.27;1.10;;;;;;;;;;5064158;28;20264;-53
2021/05/05 00:30:01;;;;;;;1.47;1.10;;;;;;;;;;5069043;28;20197;-52
2021/05/05 00:32:31;;;;;;;3.00;1.27;;;;;;;;;;5069814;28;20193;-52
2021/05/05 00:34:59;;;;;;;2.13;1.23;;;;;;;;;;5068486;28;20292;-51
2021/05/05 00:37:26;;;;;;;1.50;1.07;;;;;;;;;;5050045;28;20715;-51
2021/05/05 00:39:56;;;;;;;2.97;1.33;;;;;;;;;;5065995;28;20339;-51
2021/05/05 00:42:23;;;;;;;2.80;1.23;;;;;;;;;;5067299;28;20211;-52
2021/05/05 00:44:55;;;;;;;2.30;1.07;;;;;;;;;;5064266;28;20256;-52
2021/05/05 00:47:22;;;;;;;2.20;1.43;;;;;;;;;;5052390;28;20185;-52
2021/05/05 00:49:47;;;;;;;1.73;1.30;;;;;;;;;;5064041;28;20204;-51
2021/05/05 00:52:13;;;;;;;1.07;1.03;;;;;;;;;;5063624;28;20629;-50
2021/05/05 00:54:40;;;;;;;1.70;1.10;;;;;;;;;;5061582;28;20232;-53
2021/05/05 00:57:08;;;;;;;1.20;1.10;;;;;;;;;;5068303;28;20265;-53
2021/05/05 00:59:33;;;;;;;3.87;1.60;;;;;;;;;;5063406;28;20684;-52
2021/05/05 01:02:01;;;;;;;1.63;0.93;;;;;;;;;;5064599;28;20182;-51
2021/05/05 01:04:26;;;;;;;2.63;1.23;;;;;;;;;;5059334;28;20833;-52
2021/05/05 01:06:56;;;;;;;2.47;1.30;;;;;;;;;;5045164;28;20260;-52
2021/05/05 01:09:24;;;;;;;3.47;1.27;;;;;;;;;;5047940;28;20187;-51
2021/05/05 01:11:52;;;;;;;1.97;1.00;;;;;;;;;;5066481;28;20212;-49
2021/05/05 01:14:20;;;;;;;1.43;1.30;;;;;;;;;;5068151;28;20615;-52
2021/05/05 01:16:45;;;;;;;2.77;0.93;;;;;;;;;;5048668;28;20239;-52
2021/05/05 01:19:12;;;;;;;1.90;1.00;;;;;;;;;;5064220;28;20181;-51
2021/05/05 01:21:38;;;;;;;1.50;1.00;;;;;;;;;;5063747;28;20189;-53
2021/05/05 01:24:04;;;;;;;4.17;1.23;;;;;;;;;;5047107;28;20213;-53
2021/05/05 01:26:30;;;;;;;2.90;1.10;;;;;;;;;;5049067;28;20209;-52
2021/05/05 01:28:58;;;;;;;2.50;1.10;;;;;;;;;;5065642;28;20181;-50
2021/05/05 01:31:23;;;;;;;1.80;1.20;;;;;;;;;;5062677;28;20173;-52
2021/05/05 01:33:51;;;;;;;1.23;1.10;;;;;;;;;;5067397;28;20185;-51
2021/05/05 01:36:19;;;;;;;2.97;1.17;;;;;;;;;;5063108;28;20246;-50
2021/05/05 01:38:48;;;;;;;4.00;1.53;;;;;;;;;;5064535;28;20260;-51
2021/05/05 01:41:16;;;;;;;1.90;0.90;;;;;;;;;;5058383;28;20189;-52
2021/05/05 01:43:43;;;;;;;3.20;1.00;;;;;;;;;;5068331;28;20315;-51
2021/05/05 01:46:11;;;;;;;1.33;1.00;;;;;;;;;;5062619;28;20282;-52
2021/05/05 01:48:36;;;;;;;1.50;1.00;;;;;;;;;;5066245;28;20723;-52
2021/05/05 01:51:06;;;;;;;5.10;1.60;;;;;;;;;;5058404;28;20170;-52
2021/05/05 01:53:33;;;;;;;1.10;1.00;;;;;;;;;;5068106;28;20599;-53
2021/05/05 01:56:01;;;;;;;1.60;1.00;;;;;;;;;;5055519;28;20209;-50
2021/05/05 01:58:28;;;;;;;1.43;1.20;;;;;;;;;;5065304;28;20196;-53
2021/05/05 02:00:56;;;;;;;1.83;0.97;;;;;;;;;;5059749;28;20196;-53
2021/05/05 02:03:23;;;;;;;1.27;1.07;;;;;;;;;;5066684;28;20194;-52
2021/05/05 02:05:48;;;;;;;2.27;1.20;;;;;;;;;;5061780;28;20214;-53
2021/05/05 02:08:18;;;;;;;2.37;1.17;;;;;;;;;;5047077;28;20272;-52
2021/05/05 02:10:46;;;;;;;1.43;0.80;;;;;;;;;;5060101;28;20250;-51
2021/05/05 02:13:14;;;;;;;2.77;1.20;;;;;;;;;;5063234;28;20165;-52
2021/05/05 02:15:39;;;;;;;1.93;1.30;;;;;;;;;;5048512;28;20217;-51
2021/05/05 02:18:09;;;;;;;2.80;1.10;;;;;;;;;;5066493;28;20185;-51
2021/05/05 02:20:35;;;;;;;2.30;1.20;;;;;;;;;;5060501;28;20196;-52
2021/05/05 02:23:00;;;;;;;1.60;1.10;;;;;;;;;;5063890;28;20170;-51
2021/05/05 02:25:25;;;;;;;3.50;1.30;;;;;;;;;;5065445;28;20220;-52
2021/05/05 02:27:51;;;;;;;2.43;1.20;;;;;;;;;;5058621;28;20212;-52
2021/05/05 02:30:16;;;;;;;2.23;1.30;;;;;;;;;;5065673;28;20548;-52
2021/05/05 02:32:44;;;;;;;2.80;1.70;;;;;;;;;;5057542;28;20219;-51
2021/05/05 02:35:09;;;;;;;2.60;1.27;;;;;;;;;;5068031;28;20280;-50
2021/05/05 02:37:35;;;;;;;2.40;1.37;;;;;;;;;;5063157;28;20280;-52
2021/05/05 02:40:03;;;;;;;2.73;1.50;;;;;;;;;;5048913;28;20192;-51
2021/05/05 02:42:31;;;;;;;2.40;1.23;;;;;;;;;;5065260;28;20225;-53
2021/05/05 02:44:56;;;;;;;1.60;1.20;;;;;;;;;;5094982;22;20228;-51
2021/05/05 02:47:21;;;;;;;1.80;1.43;;;;;;;;;;5060000;28;20181;-52
2021/05/05 02:49:47;;;;;;;2.40;1.40;;;;;;;;;;5063099;28;20182;-51
2021/05/05 02:52:12;;;;;;;3.70;1.30;;;;;;;;;;5048776;28;20182;-52
2021/05/05 02:54:37;;;;;;;1.97;1.20;;;;;;;;;;5054239;28;20261;-50
2021/05/05 02:57:03;;;;;;;1.80;1.70;;;;;;;;;;5048993;28;20701;-52
2021/05/05 02:59:28;;;;;;;2.27;1.40;;;;;;;;;;5065254;28;20180;-50
2021/05/05 03:01:54;;;;;;;2.20;1.20;;;;;;;;;;5059865;28;20190;-52
2021/05/05 03:04:19;;;;;;;2.67;1.87;;;;;;;;;;5049843;28;20210;-53
2021/05/05 03:06:45;;;;;;;1.90;1.47;;;;;;;;;;5064195;28;20600;-50
2021/05/05 03:09:10;;;;;;;5.37;1.50;;;;;;;;;;5064085;28;20687;-51
2021/05/05 03:11:35;;;;;;;3.33;1.43;;;;;;;;;;5058842;28;20182;-50
2021/05/05 03:14:00;;;;;;;2.43;1.70;;;;;;;;;;5042005;28;20642;-52
2021/05/05 03:16:26;;;;;;;2.00;1.80;;;;;;;;;;5063114;28;20217;-52
2021/05/05 03:18:51;;;;;;;2.93;1.90;;;;;;;;;;5060543;28;20177;-51
2021/05/05 03:21:17;;;;;;;1.50;1.30;;;;;;;;;;5064801;28;20197;-51
2021/05/05 03:23:43;;;;;;;2.03;1.70;;;;;;;;;;5052539;28;20181;-49
2021/05/05 03:26:10;;;;;;;2.60;1.73;;;;;;;;;;5063640;28;20204;-51
2021/05/05 03:28:36;;;;;;;1.60;1.50;;;;;;;;;;5062881;28;20188;-51
2021/05/05 03:31:01;;;;;;;2.50;1.50;;;;;;;;;;5062406;28;20566;-52
2021/05/05 03:33:26;;;;;;;2.73;1.80;;;;;;;;;;5050068;28;20220;-50
2021/05/05 03:35:51;;;;;;;3.20;1.80;;;;;;;;;;5067008;28;20224;-52
2021/05/05 03:38:16;;;;;;;2.90;1.93;;;;;;;;;;5050501;28;20189;-51
2021/05/05 03:40:45;;;;;;;1.90;1.63;;;;;;;;;;5063896;28;20246;-50
2021/05/05 03:43:10;;;;;;;2.00;1.70;;;;;;;;;;5064500;28;20173;-50
2021/05/05 03:45:35;;;;;;;3.47;1.90;;;;;;;;;;5066447;28;20208;-51
2021/05/05 03:48:00;;;;;;;3.40;2.30;;;;;;;;;;5045644;28;20257;-51
2021/05/05 03:50:26;;;;;;;3.63;2.30;;;;;;;;;;5064320;28;20207;-55
2021/05/05 03:52:53;;;;;;;3.00;2.30;;;;;;;;;;5051358;28;20322;-50
2021/05/05 03:55:19;;;;;;;2.37;2.17;;;;;;;;;;5062292;28;20225;-49
2021/05/05 03:57:45;;;;;;;2.70;1.87;;;;;;;;;;5051484;28;20181;-49
2021/05/05 04:00:10;;;;;;;2.70;2.50;;;;;;;;;;5090442;28;20189;-49
2021/05/05 04:02:36;;;;;;;2.77;2.37;;;;;;;;;;5083000;28;20184;-50
2021/05/05 04:05:02;;;;;;;2.53;2.33;;;;;;;;;;5060564;28;20213;-52
2021/05/05 04:07:27;;;;;;;5.13;2.70;;;;;;;;;;5065691;28;20185;-52
2021/05/05 04:09:52;;;;;;;3.50;2.70;;;;;;;;;;5065092;28;20190;-50
2021/05/05 04:12:18;;;;;;;2.60;2.40;;;;;;;;;;5062850;28;20177;-54
2021/05/05 04:14:43;;;;;;;3.17;2.70;;;;;;;;;;5062952;28;20696;-52
2021/05/05 04:17:08;;;;;;;8.03;3.10;;;;;;;;;;5063741;28;20192;-51
2021/05/05 04:19:33;;;;;;;5.57;3.10;;;;;;;;;;5062799;28;20664;-49
2021/05/05 04:22:00;;;;;;;5.83;3.43;;;;;;;;;;5060288;28;20564;-49
2021/05/05 04:24:25;;;;;;;5.10;3.70;;;;;;;;;;5065663;28;20220;-53
2021/05/05 04:26:50;;;;;;;4.93;3.77;;;;;;;;;;5062574;28;20181;-52
2021/05/05 04:29:18;;;;;;;5.87;3.87;;;;;;;;;;5064214;28;20174;-52
2021/05/05 04:31:46;;;;;;;4.63;4.23;;;;;;;;;;5061432;28;20270;-50
2021/05/05 04:34:11;;;;;;;5.87;4.00;;;;;;;;;;5029403;28;20699;-51
2021/05/05 04:36:36;;;;;;;3.80;3.50;;;;;;;;;;5043121;28;20255;-51
2021/05/05 04:39:02;;;;;;;4.03;3.63;;;;;;;;;;5050242;28;20272;-51
2021/05/05 04:41:29;;;;;;;4.53;3.80;;;;;;;;;;5066092;28;21446;-52
2021/05/05 04:43:54;;;;;;;3.77;2.60;;;;;;;;;;5067935;28;20184;-51
2021/05/05 04:46:19;;;;;;;3.87;3.50;;;;;;;;;;5062039;28;20210;-51
2021/05/05 04:48:44;;;;;;;3.90;3.43;;;;;;;;;;5056973;28;20788;-50
2021/05/05 04:51:10;;;;;;;4.63;3.60;;;;;;;;;;5058985;28;20178;-49
2021/05/05 04:53:35;;;;;;;4.77;3.60;;;;;;;;;;5072191;28;20640;-51
2021/05/05 04:56:00;;;;;;;4.50;3.60;;;;;;;;;;5051172;28;20202;-51
2021/05/05 04:58:25;;;;;;;2.90;2.50;;;;;;;;;;5066138;28;20197;-50
2021/05/05 05:00:51;;;;;;;4.93;3.60;;;;;;;;;;5042684;28;20568;-50
2021/05/05 05:03:16;;;;;;;4.33;3.50;;;;;;;;;;5075568;28;20189;-51
2021/05/05 05:05:41;;;;;;;3.93;3.60;;;;;;;;;;5061458;28;20582;-50
2021/05/05 05:08:07;;;;;;;6.20;3.30;;;;;;;;;;5061012;28;20173;-50
2021/05/05 05:10:32;;;;;;;3.77;3.47;;;;;;;;;;5060866;28;20185;-50
2021/05/05 05:13:00;;;;;;;4.63;2.80;;;;;;;;;;5063996;28;20170;-50
2021/05/05 05:15:25;;;;;;;4.53;3.30;;;;;;;;;;5049942;28;20201;-51
2021/05/05 05:17:50;;;;;;;5.20;3.03;;;;;;;;;;5067612;28;20269;-50
2021/05/05 05:20:15;;;;;;;4.50;3.70;;;;;;;;;;5051545;28;20661;-51
2021/05/05 05:22:41;;;;;;;4.10;3.80;;;;;;;;;;5064435;28;20192;-49
2021/05/05 05:25:10;;;;;;;4.67;4.17;;;;;;;;;;5059777;28;20209;-51
2021/05/05 05:27:35;;;;;;;3.80;3.17;;;;;;;;;;5048354;28;20216;-51
2021/05/05 05:30:00;;;;;;;3.67;3.20;;;;;;;;;;5065577;28;20213;-49
2021/05/05 05:32:26;;;;;;;4.83;3.37;;;;;;;;;;5050135;28;20177;-50
2021/05/05 05:34:51;;;;;;;5.13;3.40;;;;;;;;;;5066851;28;20302;-52
2021/05/05 05:37:17;;;;;;;4.30;3.17;;;;;;;;;;5067600;28;20238;-52
2021/05/05 05:39:42;;;;;;;4.43;2.80;;;;;;;;;;5065572;28;20831;-50
2021/05/05 05:42:07;;;;;;;3.97;3.20;;;;;;;;;;5050346;28;20196;-50
2021/05/05 05:44:33;;;;;;;2.83;2.60;;;;;;;;;;5067448;28;20296;-52
2021/05/05 05:46:58;;;;;;;4.47;2.90;;;;;;;;;;5063672;28;20638;-50
2021/05/05 05:49:23;;;;;;;3.27;2.97;;;;;;;;;;5064947;28;20186;-51
2021/05/05 05:51:51;;;;;;;4.13;2.73;;;;;;;;;;5048656;28;20205;-51
2021/05/05 05:54:16;;;;;;;3.10;2.80;;;;;;;;;;5050998;28;20185;-53
2021/05/05 05:56:42;;;;;;;4.27;3.00;;;;;;;;;;5063881;28;20881;-52
2021/05/05 05:59:07;;;;;;;3.93;2.83;;;;;;;;;;5066358;28;20666;-51
2021/05/05 06:01:32;;;;;;;4.20;2.80;;;;;;;;;;5048265;28;20190;-51
2021/05/05 06:03:57;;;;;;;3.80;2.80;;;;;;;;;;5049356;28;20253;-51
2021/05/05 06:06:22;;;;;;;4.60;2.63;;;;;;;;;;5064949;28;20197;-52
2021/05/05 06:08:48;;;;;;;2.90;2.50;;;;;;;;;;5065982;28;20264;-52
2021/05/05 06:11:13;;;;;;;3.50;2.37;;;;;;;;;;5064955;28;20187;-49
2021/05/05 06:13:41;;;;;;;3.90;2.80;;;;;;;;;;5051408;28;20554;-50
2021/05/05 06:16:06;;;;;;;2.20;1.83;;;;;;;;;;5061357;28;20696;-50
2021/05/05 06:18:31;;;;;;;2.17;1.80;;;;;;;;;;5061979;28;20181;-51
2021/05/05 06:20:56;;;;;;;2.93;2.10;;;;;;;;;;5064878;28;20182;-50
2021/05/05 06:23:22;;;;;;;3.87;2.47;;;;;;;;;;5059852;28;20180;-49
2021/05/05 06:25:47;;;;;;;2.60;2.40;;;;;;;;;;5064555;28;20700;-50
2021/05/05 06:28:12;;;;;;;1.93;1.83;;;;;;;;;;5044057;28;20175;-53
2021/05/05 06:30:40;;;;;;;3.17;2.00;;;;;;;;;;5048710;28;20174;-52
2021/05/05 06:33:05;;;;;;;3.30;2.50;;;;;;;;;;5037894;28;20217;-52
2021/05/05 06:35:31;;;;;;;3.53;2.50;;;;;;;;;;5064190;28;20246;-52
2021/05/05 06:37:56;;;;;;;3.83;2.10;;;;;;;;;;5063293;28;20182;-52
2021/05/05 06:40:21;;;;;;;3.53;1.73;;;;;;;;;;5043270;28;20280;-51
2021/05/05 06:42:47;;;;;;;3.87;2.70;;;;;;;;;;5067903;28;20173;-53
2021/05/05 06:45:12;;;;;;;3.10;2.60;;;;;;;;;;5064889;28;20219;-50
2021/05/05 06:47:38;;;;;;;4.97;3.00;;;;;;;;;;5049220;28;20189;-53
2021/05/05 06:50:04;;;;;;;3.07;2.47;;;;;;;;;;5054836;28;20182;-52
2021/05/05 06:52:29;;;;;;;3.70;2.33;;;;;;;;;;5063546;28;20178;-51
2021/05/05 06:54:55;;;;;;;3.07;2.33;;;;;;;;;;5062900;28;20220;-52
2021/05/05 06:57:20;;;;;;;2.30;2.03;;;;;;;;;;5064403;28;20181;-53
2021/05/05 06:59:45;;;;;;;2.60;2.10;;;;;;;;;;5058904;28;20201;-52
2021/05/05 07:02:10;;;;;;;3.73;2.80;;;;;;;;;;5064904;28;20177;-52
2021/05/05 07:04:36;;;;;;;3.20;2.20;;;;;;;;;;5064683;28;20204;-52
2021/05/05 07:07:01;;;;;;;3.90;2.80;;;;;;;;;;5065628;28;20181;-52
2021/05/05 07:09:26;;;;;;;3.87;2.63;;;;;;;;;;5064898;28;20185;-50
2021/05/05 07:11:51;;;;;;;3.90;3.60;;;;;;;;;;5065610;28;20187;-51
2021/05/05 07:14:17;;;;;;;5.27;4.73;;;;;;;;;;5066371;28;20184;-52
2021/05/05 07:16:42;;;;;;;5.17;4.67;;;;;;;;;;5066796;28;20190;-51
2021/05/05 07:19:09;;;;;;;5.97;4.60;;;;;;;;;;5064422;28;20196;-52
2021/05/05 07:21:35;;;;;;;5.10;4.57;;;;;;;;;;5065173;28;20202;-52
2021/05/05 07:24:03;;;;;;;5.70;4.70;;;;;;;;;;5058369;28;20184;-52
2021/05/05 07:26:28;;;;;;;7.33;5.77;;;;;;;;;;5061706;28;20216;-50
2021/05/05 07:28:54;;;;;;;6.00;5.40;;;;;;;;;;5062994;28;20186;-51
2021/05/05 07:31:19;;;;;;;6.27;5.67;;;;;;;;;;5067565;28;20188;-50
2021/05/05 07:33:46;;;;;;;6.47;5.07;;;;;;;;;;5046595;28;20837;-49
2021/05/05 07:36:18;;;;;;;5.83;4.80;;;;;;;;;;5064808;28;20196;-50
2021/05/05 07:46:45;;;;;;;3.70;3.40;;;;;;;;;;5062218;28;20246;-52
2021/05/05 07:49:13;;;;;;;3.47;2.33;;;;;;;;;;5064057;28;20184;-52
2021/05/05 07:51:38;;;;;;;2.60;2.40;;;;;;;;;;5065004;28;20193;-50
2021/05/05 07:54:04;;;;;;;2.43;2.23;;;;;;;;;;5067920;28;20230;-49
2021/05/05 07:56:29;;;;;;;2.37;2.17;;;;;;;;;;5057456;28;20796;-49
2021/05/05 07:58:54;;;;;;;1.60;1.50;;;;;;;;;;5052760;28;20193;-51
2021/05/05 08:01:20;;;;;;;2.20;2.00;;;;;;;;;;5066826;28;20200;-53
2021/05/05 08:03:45;;;;;;;3.17;2.30;;;;;;;;;;5061699;28;20185;-50
2021/05/05 08:06:10;;;;;;;1.77;1.33;;;;;;;;;;5064758;28;20235;-50
2021/05/05 08:08:38;;;;;;;3.17;1.40;;;;;;;;;;5064132;28;20826;-51
2021/05/05 08:11:03;;;;;;;5.00;1.80;;;;;;;;;;5047924;28;20185;-51
2021/05/05 08:13:28;;;;;;;1.47;1.03;;;;;;;;;;5051062;28;20186;-51
2021/05/05 08:15:57;;;;;;;3.77;1.50;;;;;;;;;;5068020;28;20289;-52
2021/05/05 08:18:22;;;;;;;3.00;1.63;;;;;;;;;;5068730;28;20185;-51
2021/05/05 08:20:47;;;;;;;3.07;1.50;;;;;;;;;;5069377;28;20742;-50
2021/05/05 08:23:14;;;;;;;1.57;1.00;;;;;;;;;;5069939;28;20228;-51
2021/05/05 08:25:40;;;;;;;2.10;1.10;;;;;;;;;;5070778;28;20213;-51
2021/05/05 08:28:05;;;;;;;1.87;1.23;;;;;;;;;;5053320;28;20709;-52
2021/05/05 08:30:30;;;;;;;3.63;1.40;;;;;;;;;;5069952;28;20204;-53
2021/05/05 08:32:55;;;;;;;4.90;1.10;;;;;;;;;;5066991;28;20264;-52
2021/05/05 08:35:21;;;;;;;3.07;1.33;;;;;;;;;;5067678;28;20189;-52
2021/05/05 08:37:51;;;;;;;3.83;1.20;;;;;;;;;;5068310;28;20656;-51
2021/05/05 08:40:16;;;;;;;3.03;1.30;;;;;;;;;;5057212;28;20196;-52
2021/05/05 08:42:42;;;;;;;4.73;1.40;;;;;;;;;;5065426;28;20188;-51
2021/05/05 08:45:14;;;;;;;3.40;1.50;;;;;;;;;;5066654;28;21005;-52
2021/05/05 08:47:40;;;;;;;3.70;1.40;;;;;;;;;;5065695;28;20182;-51
2021/05/05 08:50:06;;;;;;;3.70;1.83;;;;;;;;;;5060917;28;20280;-51
2021/05/05 08:52:31;;;;;;;4.60;1.90;;;;;;;;;;5059297;28;20776;-51
2021/05/05 08:54:57;;;;;;;4.40;1.50;;;;;;;;;;5048165;28;20850;-54
2021/05/05 08:57:22;;;;;;;3.77;1.50;;;;;;;;;;5066842;28;20192;-52
2021/05/05 08:59:47;;;;;;;5.57;1.80;;;;;;;;;;5048295;28;20235;-50
2021/05/05 09:02:12;;;;;;;4.55;1.70;;;;;;;;;;5043927;28;20193;-52
2021/05/05 09:04:38;;;;;;;5.90;1.80;;;;;;;;;;5103474;22;20837;-73
2021/05/05 09:07:03;;;;;;;2.63;1.10;;;;;;;;;;5078753;28;20212;-74
2021/05/05 09:09:42;;;;;;;4.57;1.63;;;;;;;;;;5085209;28;20188;-73
2021/05/05 09:12:26;;;;;;;5.20;1.63;;;;;;;;;;5085183;28;20192;-74
2021/05/05 09:14:57;;;;;;;5.77;1.67;;;;;;;;;;5085601;28;20233;-73
2021/05/05 09:17:24;;;;;;;3.60;1.50;;;;;;;;;;5095177;22;21446;-51
2021/05/05 09:19:49;;;;;;;6.77;2.07;;;;;;;;;;5068298;28;20241;-50
2021/05/05 09:22:32;;;;;;;3.50;1.60;;;;;;;;;;5078115;28;20213;-51
2021/05/05 09:24:57;;;;;;;5.07;1.60;;;;;;;;;;5073929;28;20216;-51
2021/05/05 09:27:23;;;;;;;4.28;1.70;;;;;;;;;;5079995;28;20187;-51
2021/05/05 09:29:49;;;;;;;3.27;1.53;;;;;;;;;;5079158;28;20189;-52
2021/05/05 09:32:17;;;;;;;4.60;1.60;;;;;;;;;;5061089;28;20257;-50
2021/05/05 09:34:42;;;;;;;7.67;1.80;;;;;;;;;;5082628;28;20204;-51
2021/05/05 09:37:12;;;;;;;5.27;1.67;;;;;;;;;;5082926;28;20237;-53
2021/05/05 09:39:40;;;;;;;2.87;1.47;;;;;;;;;;5076094;28;20197;-51
2021/05/05 09:42:25;;;;;;;3.07;1.60;;;;;;;;;;5074951;28;20205;-53
2021/05/05 09:44:55;;;;;;;3.73;1.83;;;;;;;;;;5081309;28;20220;-52
2021/05/05 09:47:22;;;;;;;6.73;1.37;;;;;;;;;;5082995;28;20664;-53
2021/05/05 09:49:48;;;;;;;3.23;1.77;;;;;;;;;;5080419;28;20217;-52
2021/05/05 09:52:22;;;;;;;5.63;1.60;;;;;;;;;;5077154;28;20230;-52
2021/05/05 09:54:55;;;;;;;3.23;1.70;;;;;;;;;;5081431;28;20337;-51
2021/05/05 09:57:26;;;;;;;4.40;1.70;;;;;;;;;;5080952;28;20203;-50
2021/05/05 10:00:03;;;;;;;3.70;2.27;;;;;;;;;;5080298;28;20248;-50
2021/05/05 10:02:39;;;;;;;6.10;1.90;;;;;;;;;;5078376;28;20735;-51
2021/05/05 10:05:06;;;;;;;4.13;1.87;;;;;;;;;;5061359;28;20212;-52
2021/05/05 10:07:47;;;;;;;5.23;2.00;;;;;;;;;;5079783;28;20188;-52
2021/05/05 10:10:12;;;;;;;4.40;1.40;;;;;;;;;;5077722;28;20645;-52
2021/05/05 10:12:37;;;;;;;1.87;1.27;;;;;;;;;;5079883;28;20195;-50
2021/05/05 10:15:04;;;;;;;3.03;1.20;;;;;;;;;;5062666;28;20222;-52
2021/05/05 10:17:31;;;;;;;3.40;1.30;;;;;;;;;;5080767;28;20253;-52
2021/05/05 10:19:58;;;;;;;1.93;1.30;;;;;;;;;;5064216;28;20271;-53
2021/05/05 10:22:26;;;;;;;2.00;1.30;;;;;;;;;;5077992;28;20188;-52
2021/05/05 10:24:54;;;;;;;3.30;1.47;;;;;;;;;;5083149;28;20211;-50
2021/05/05 10:27:19;;;;;;;2.70;1.30;;;;;;;;;;5080328;28;20219;-52
2021/05/05 10:29:49;;;;;;;2.20;1.50;;;;;;;;;;5078386;28;20209;-53
2021/05/05 10:32:19;;;;;;;2.80;1.60;;;;;;;;;;5082121;28;20184;-51
2021/05/05 10:34:48;;;;;;;2.87;1.83;;;;;;;;;;5083171;28;20269;-51
2021/05/05 10:37:15;;;;;;;3.70;2.00;;;;;;;;;;5077480;28;20192;-51
2021/05/05 10:39:43;;;;;;;4.30;1.90;;;;;;;;;;5081633;28;20234;-53
2021/05/05 10:42:18;;;;;;;3.67;2.03;;;;;;;;;;5087501;28;20215;-49
2021/05/05 10:44:48;;;;;;;3.27;1.60;;;;;;;;;;5073107;28;20253;-51
2021/05/05 10:47:17;;;;;;;2.13;1.67;;;;;;;;;;5082850;28;20185;-51
2021/05/05 10:49:58;;;;;;;2.60;1.90;;;;;;;;;;5083686;28;20173;-49
2021/05/05 10:52:23;;;;;;;2.83;1.80;;;;;;;;;;5079645;28;20176;-51
2021/05/05 10:54:50;;;;;;;2.20;1.40;;;;;;;;;;5058970;28;20216;-52
2021/05/05 10:57:17;;;;;;;2.00;1.60;;;;;;;;;;5084408;28;20180;-51
2021/05/05 11:00:06;;;;;;;2.67;1.43;;;;;;;;;;5081719;28;20222;-52
2021/05/05 11:02:47;;;;;;;2.63;1.60;;;;;;;;;;5057129;28;20722;-51
2021/05/05 11:05:38;;;;;;;2.93;1.70;;;;;;;;;;5084220;28;20207;-50
2021/05/05 11:08:07;;;;;;;2.97;1.63;;;;;;;;;;5074603;28;20195;-52
2021/05/05 11:10:36;;;;;;;4.00;2.17;;;;;;;;;;5082468;28;20173;-52
2021/05/05 11:13:04;;;;;;;3.30;1.67;;;;;;;;;;5079038;28;20184;-52
2021/05/05 11:15:41;;;;;;;2.40;1.80;;;;;;;;;;5084708;28;20595;-51
2021/05/05 11:18:25;;;;;;;4.53;1.90;;;;;;;;;;5082542;28;20216;-52
2021/05/05 11:20:50;;;;;;;3.83;1.87;;;;;;;;;;5083825;28;20180;-50
2021/05/05 11:23:45;;;;;;;;;;;;;;;;;;;;;
2021/05/05 11:26:21;;;;;;;2.63;1.60;;;;;;;;;;5077026;28;20212;-52
2021/05/05 11:29:03;;;;;;;5.63;1.87;;;;;;;;;;5081492;28;20201;-51
2021/05/05 11:31:52;;;;;;;6.60;1.70;;;;;;;;;;5080384;28;20191;-51
2021/05/05 11:34:20;;;;;;;4.47;1.70;;;;;;;;;;5059438;28;20251;-52
2021/05/05 11:36:46;;;;;;;5.43;1.90;;;;;;;;;;5084473;28;20254;-52
2021/05/05 11:39:21;;;;;;;3.03;1.47;;;;;;;;;;5077738;28;20227;-51
2021/05/05 11:41:56;;;;;;;3.17;1.50;;;;;;;;;;5084799;28;20187;-52
2021/05/05 11:44:36;;;;;;;2.27;1.70;;;;;;;;;;5079035;28;20209;-51
2021/05/05 11:47:06;;;;;;;4.97;1.43;;;;;;;;;;5082198;28;20198;-50
2021/05/05 11:49:35;;;;;;;5.53;1.80;;;;;;;;;;5089072;28;20207;-50
2021/05/05 11:52:21;;;;;;;4.00;1.70;;;;;;;;;;5088712;28;20263;-49
2021/05/05 11:54:48;;;;;;;3.30;1.60;;;;;;;;;;5076627;28;20265;-50
2021/05/05 11:57:13;;;;;;;2.80;1.33;;;;;;;;;;5082721;28;20215;-52
2021/05/05 11:59:39;;;;;;;3.53;1.80;;;;;;;;;;5065399;28;20216;-52
2021/05/05 12:02:07;;;;;;;4.00;1.70;;;;;;;;;;5084691;28;20204;-52
2021/05/05 12:04:40;;;;;;;6.87;2.10;;;;;;;;;;5082082;28;20212;-52
2021/05/05 12:07:10;;;;;;;2.13;1.50;;;;;;;;;;5063413;28;20176;-53
2021/05/05 12:09:41;;;;;;;3.67;2.17;;;;;;;;;;5081470;28;20169;-53
2021/05/05 12:12:08;;;;;;;3.87;1.83;;;;;;;;;;5083859;28;20222;-52
2021/05/05 12:14:33;;;;;;;3.83;1.60;;;;;;;;;;5081866;28;20200;-51
2021/05/05 12:17:11;;;;;;;4.70;1.80;;;;;;;;;;5081464;28;20187;-53
2021/05/05 12:19:39;;;;;;;3.10;1.50;;;;;;;;;;5080481;28;20192;-51
2021/05/05 12:22:11;;;;;;;4.33;1.87;;;;;;;;;;5064799;28;20277;-52
2021/05/05 12:24:36;;;;;;;2.57;1.80;;;;;;;;;;5079491;28;20205;-51
2021/05/05 12:27:08;;;;;;;2.10;1.40;;;;;;;;;;5079560;28;20640;-52
2021/05/05 12:29:36;;;;;;;3.30;2.00;;;;;;;;;;5081175;28;20599;-52
2021/05/05 12:32:03;;;;;;;2.53;1.53;;;;;;;;;;5063294;28;20207;-51
2021/05/05 12:34:28;;;;;;;4.97;1.80;;;;;;;;;;5080792;28;20232;-53
2021/05/05 12:36:56;;;;;;;4.07;1.50;;;;;;;;;;5079617;28;20212;-50
2021/05/05 12:39:22;;;;;;;2.37;1.53;;;;;;;;;;5081222;28;20184;-52
2021/05/05 12:41:51;;;;;;;2.70;1.80;;;;;;;;;;5064007;28;20185;-51
2021/05/05 12:44:19;;;;;;;2.10;1.60;;;;;;;;;;5061799;28;20295;-49
2021/05/05 12:46:55;;;;;;;4.33;1.60;;;;;;;;;;5080480;28;20268;-50
2021/05/05 12:49:34;;;;;;;3.33;2.07;;;;;;;;;;5081095;28;20184;-50
2021/05/05 12:52:00;;;;;;;4.13;1.90;;;;;;;;;;5083287;28;20200;-51
2021/05/05 12:54:28;;;;;;;3.93;2.13;;;;;;;;;;5081872;28;20558;-52
2021/05/05 12:56:54;;;;;;;3.10;2.20;;;;;;;;;;5084431;28;20182;-52
2021/05/05 12:59:22;;;;;;;4.60;2.10;;;;;;;;;;5084986;28;20645;-50
2021/05/05 13:02:00;;;;;;;5.80;1.80;;;;;;;;;;5064690;28;20242;-49
2021/05/05 13:04:33;;;;;;;2.77;1.80;;;;;;;;;;5081856;28;20219;-49
2021/05/05 13:06:58;;;;;;;3.73;1.67;;;;;;;;;;5085964;28;20189;-53
2021/05/05 13:09:24;;;;;;;3.63;1.80;;;;;;;;;;5092259;28;20180;-51
2021/05/05 13:11:52;;;;;;;4.47;1.73;;;;;;;;;;5084561;28;20628;-52
2021/05/05 13:20:26;;;;;;;4.90;1.90;;;;;;;;;;5076324;28;20184;-51
2021/05/05 13:26:18;;;;;;;2.23;1.53;;;;;;;;;;5086005;28;20257;-50
2021/05/05 13:31:15;;;;;;;3.55;1.30;;;;;;;;;;5082031;28;20411;-52
2021/05/05 13:33:41;;;;;;;2.10;1.10;;;;;;;;;;5079136;28;20201;-50
2021/05/05 13:36:06;;;;;;;1.77;1.00;;;;;;;;;;5077260;28;20184;-52
2021/05/05 13:38:39;;;;;;;1.93;1.07;;;;;;;;;;5077490;28;20285;-53
2021/05/05 13:41:07;;;;;;;7.63;1.30;;;;;;;;;;5078128;28;20193;-50
2021/05/05 13:51:23;;;;;;;3.20;1.30;;;;;;;;;;5077924;28;20185;-51
2021/05/05 13:53:51;;;;;;;4.03;1.47;;;;;;;;;;5078125;28;20212;-51
2021/05/05 13:56:20;;;;;;;2.47;1.13;;;;;;;;;;5072492;28;20195;-50
2021/05/05 13:58:47;;;;;;;2.63;1.30;;;;;;;;;;5077427;28;20188;-50
2021/05/05 14:01:12;;;;;;;3.73;1.37;;;;;;;;;;5078605;28;20652;-50
2021/05/05 14:03:38;;;;;;;2.07;1.40;;;;;;;;;;5075936;28;20249;-52
2021/05/05 14:06:05;;;;;;;4.63;1.00;;;;;;;;;;5078352;28;20196;-52
2021/05/05 14:08:33;;;;;;;1.53;0.90;;;;;;;;;;5076543;28;20187;-51
2021/05/05 14:11:03;;;;;;;1.33;0.70;;;;;;;;;;5059742;28;20279;-52
2021/05/05 14:13:30;;;;;;;1.10;0.60;;;;;;;;;;5076811;28;20292;-51
2021/05/05 14:15:57;;;;;;;1.53;0.57;;;;;;;;;;5078330;28;20187;-51
2021/05/05 14:18:27;;;;;;;0.90;0.50;;;;;;;;;;5076860;28;20290;-52
2021/05/05 14:20:54;;;;;;;0.60;0.50;;;;;;;;;;5077126;28;20261;-52
2021/05/05 14:23:24;;;;;;;1.37;0.77;;;;;;;;;;5077057;28;20873;-52
2021/05/05 14:25:50;;;;;;;0.70;0.60;;;;;;;;;;5077739;28;20215;-50
2021/05/05 14:28:16;;;;;;;2.30;0.70;;;;;;;;;;5074487;28;20192;-52
2021/05/05 14:30:44;;;;;;;2.37;0.70;;;;;;;;;;5056328;28;20208;-50
2021/05/05 14:33:09;;;;;;;1.87;0.80;;;;;;;;;;5076290;28;20333;-50
2021/05/05 14:35:35;;;;;;;1.00;0.70;;;;;;;;;;5078598;28;20222;-52
2021/05/05 14:38:06;;;;;;;1.57;0.87;;;;;;;;;;5075799;28;20216;-51
2021/05/05 14:40:33;;;;;;;1.67;0.90;;;;;;;;;;5076808;28;21144;-50
2021/05/05 14:43:19;;;;;;;3.90;1.47;;;;;;;;;;5075788;28;20242;-51
2021/05/05 14:46:01;;;;;;;1.20;0.80;;;;;;;;;;5076938;28;20311;-50
2021/05/05 14:50:55;;;;;;;1.67;0.90;;;;;;;;;;5075096;28;20267;-52
2021/05/05 14:53:20;;;;;;;1.20;0.80;;;;;;;;;;5074708;28;20205;-52
2021/05/05 14:55:46;;;;;;;3.50;0.87;;;;;;;;;;5068435;28;20965;-53
2021/05/05 14:58:17;;;;;;;2.53;1.00;;;;;;;;;;5070289;28;20579;-52
2021/05/05 15:00:45;;;;;;;2.17;0.83;;;;;;;;;;5068257;28;20203;-51
2021/05/05 15:03:15;;;;;;;2.03;0.90;;;;;;;;;;5070423;28;22090;-51
2021/05/05 15:05:41;;;;;;;1.80;1.10;;;;;;;;;;5069715;28;20281;-52
2021/05/05 15:08:09;;;;;;;2.30;1.00;;;;;;;;;;5069822;28;20196;-52
2021/05/05 15:29:27;;;;;;;3.23;1.30;;;;;;;;;;5076960;28;20234;-52
2021/05/05 15:37:36;;;;;;;2.20;1.20;;;;;;;;;;5074567;28;20191;-54
2021/05/05 15:40:06;;;;;;;3.10;1.30;;;;;;;;;;5076228;28;20180;-51